sensor_id;sensor_type;location;lat;lon;timestamp;P1;durP1;ratioP1;P2;durP2;ratioP2
62790;SDS011;48830;53.426;10.300;2023-04-08T00:02:20;14.93;;;8.70;;
62790;SDS011;48830;53.426;10.300;2023-04-08T00:04:45;14.93;;;9.00;;
62790;SDS011;48830;53.426;10.300;2023-04-08T00:07:11;13.77;;;9.00;;
62790;SDS011;48830;53.426;10.300;2023-04-08T00:09:36;16.48;;;8.88;;
62790;SDS011;48830;53.426;10.300;2023-04-08T00:12:02;17.30;;;9.70;;
62790;SDS011;48830;53.426;10.300;2023-04-08T00:14:28;15.65;;;9.73;;
62790;SDS011;48830;53.426;10.300;2023-04-08T00:16:54;14.80;;;8.73;;
62790;SDS011;48830;53.426;10.300;2023-04-08T00:19:19;14.77;;;9.03;;
62790;SDS011;48830;53.426;10.300;2023-04-08T00:21:45;14.35;;;8.52;;
62790;SDS011;48830;53.426;10.300;2023-04-08T00:24:10;15.65;;;9.35;;
62790;SDS011;48830;53.426;10.300;2023-04-08T00:26:35;16.70;;;9.73;;
62790;SDS011;48830;53.426;10.300;2023-04-08T00:29:01;17.57;;;9.80;;
62790;SDS011;48830;53.426;10.300;2023-04-08T00:31:27;18.10;;;9.45;;
62790;SDS011;48830;53.426;10.300;2023-04-08T00:33:52;17.90;;;9.70;;
62790;SDS011;48830;53.426;10.300;2023-04-08T00:36:18;17.77;;;9.68;;
62790;SDS011;48830;53.426;10.300;2023-04-08T00:38:43;19.35;;;10.30;;
62790;SDS011;48830;53.426;10.300;2023-04-08T00:41:09;17.35;;;9.60;;
62790;SDS011;48830;53.426;10.300;2023-04-08T00:43:34;16.50;;;9.07;;
62790;SDS011;48830;53.426;10.300;2023-04-08T00:46:00;17.88;;;9.73;;
62790;SDS011;48830;53.426;10.300;2023-04-08T00:48:26;15.27;;;9.27;;
62790;SDS011;48830;53.426;10.300;2023-04-08T00:50:51;17.30;;;9.93;;
62790;SDS011;48830;53.426;10.300;2023-04-08T00:53:17;18.73;;;9.40;;
62790;SDS011;48830;53.426;10.300;2023-04-08T00:55:43;14.07;;;8.10;;
62790;SDS011;48830;53.426;10.300;2023-04-08T00:58:09;15.83;;;8.30;;
62790;SDS011;48830;53.426;10.300;2023-04-08T01:00:35;16.05;;;8.77;;
62790;SDS011;48830;53.426;10.300;2023-04-08T01:08:12;17.00;;;9.30;;
62790;SDS011;48830;53.426;10.300;2023-04-08T01:10:38;15.82;;;9.13;;
62790;SDS011;48830;53.426;10.300;2023-04-08T01:13:08;16.88;;;8.73;;
62790;SDS011;48830;53.426;10.300;2023-04-08T01:15:36;15.60;;;8.70;;
62790;SDS011;48830;53.426;10.300;2023-04-08T01:18:05;16.30;;;8.98;;
62790;SDS011;48830;53.426;10.300;2023-04-08T01:20:33;16.60;;;8.80;;
62790;SDS011;48830;53.426;10.300;2023-04-08T01:25:29;15.90;;;8.27;;
62790;SDS011;48830;53.426;10.300;2023-04-08T01:27:56;13.23;;;7.60;;
62790;SDS011;48830;53.426;10.300;2023-04-08T01:30:25;15.45;;;8.40;;
62790;SDS011;48830;53.426;10.300;2023-04-08T01:32:56;15.30;;;7.80;;
62790;SDS011;48830;53.426;10.300;2023-04-08T01:35:23;15.57;;;8.43;;
62790;SDS011;48830;53.426;10.300;2023-04-08T01:37:50;15.93;;;8.75;;
62790;SDS011;48830;53.426;10.300;2023-04-08T01:40:17;17.52;;;8.20;;
62790;SDS011;48830;53.426;10.300;2023-04-08T01:42:44;12.23;;;8.18;;
62790;SDS011;48830;53.426;10.300;2023-04-08T01:45:12;15.82;;;9.48;;
62790;SDS011;48830;53.426;10.300;2023-04-08T01:47:39;17.33;;;8.10;;
62790;SDS011;48830;53.426;10.300;2023-04-08T01:50:06;17.07;;;8.97;;
62790;SDS011;48830;53.426;10.300;2023-04-08T01:52:34;15.98;;;8.95;;
62790;SDS011;48830;53.426;10.300;2023-04-08T01:55:03;14.50;;;8.50;;
62790;SDS011;48830;53.426;10.300;2023-04-08T01:57:31;16.70;;;9.52;;
62790;SDS011;48830;53.426;10.300;2023-04-08T02:00:02;14.07;;;8.53;;
62790;SDS011;48830;53.426;10.300;2023-04-08T02:02:44;15.02;;;8.52;;
62790;SDS011;48830;53.426;10.300;2023-04-08T02:05:12;16.60;;;8.82;;
62790;SDS011;48830;53.426;10.300;2023-04-08T02:07:38;16.38;;;9.35;;
62790;SDS011;48830;53.426;10.300;2023-04-08T02:10:03;15.52;;;9.05;;
62790;SDS011;48830;53.426;10.300;2023-04-08T02:12:29;15.73;;;8.82;;
62790;SDS011;48830;53.426;10.300;2023-04-08T02:14:56;13.98;;;8.20;;
62790;SDS011;48830;53.426;10.300;2023-04-08T02:17:28;16.75;;;8.90;;
62790;SDS011;48830;53.426;10.300;2023-04-08T02:20:06;13.33;;;8.63;;
62790;SDS011;48830;53.426;10.300;2023-04-08T02:25:13;15.52;;;8.60;;
62790;SDS011;48830;53.426;10.300;2023-04-08T02:27:40;15.70;;;9.20;;
62790;SDS011;48830;53.426;10.300;2023-04-08T02:30:09;15.88;;;8.63;;
62790;SDS011;48830;53.426;10.300;2023-04-08T02:32:36;13.83;;;8.00;;
62790;SDS011;48830;53.426;10.300;2023-04-08T02:35:03;14.15;;;8.70;;
62790;SDS011;48830;53.426;10.300;2023-04-08T02:37:30;13.65;;;8.18;;
62790;SDS011;48830;53.426;10.300;2023-04-08T02:39:56;14.63;;;8.80;;
62790;SDS011;48830;53.426;10.300;2023-04-08T02:42:23;13.93;;;8.20;;
62790;SDS011;48830;53.426;10.300;2023-04-08T02:44:51;13.05;;;7.88;;
62790;SDS011;48830;53.426;10.300;2023-04-08T02:47:16;13.57;;;8.57;;
62790;SDS011;48830;53.426;10.300;2023-04-08T02:49:42;11.75;;;7.65;;
62790;SDS011;48830;53.426;10.300;2023-04-08T02:52:08;12.93;;;7.47;;
62790;SDS011;48830;53.426;10.300;2023-04-08T02:54:33;13.73;;;7.90;;
62790;SDS011;48830;53.426;10.300;2023-04-08T02:56:59;14.13;;;7.78;;
62790;SDS011;48830;53.426;10.300;2023-04-08T02:59:24;12.18;;;7.45;;
62790;SDS011;48830;53.426;10.300;2023-04-08T03:01:50;14.20;;;8.30;;
62790;SDS011;48830;53.426;10.300;2023-04-08T03:04:15;14.95;;;8.00;;
62790;SDS011;48830;53.426;10.300;2023-04-08T03:06:41;13.95;;;8.63;;
62790;SDS011;48830;53.426;10.300;2023-04-08T03:09:06;15.63;;;7.73;;
62790;SDS011;48830;53.426;10.300;2023-04-08T03:11:32;16.58;;;9.02;;
62790;SDS011;48830;53.426;10.300;2023-04-08T03:13:58;14.23;;;8.15;;
62790;SDS011;48830;53.426;10.300;2023-04-08T03:16:24;16.00;;;8.35;;
62790;SDS011;48830;53.426;10.300;2023-04-08T03:18:50;16.38;;;8.32;;
62790;SDS011;48830;53.426;10.300;2023-04-08T03:21:15;14.65;;;8.27;;
62790;SDS011;48830;53.426;10.300;2023-04-08T03:23:41;13.70;;;7.80;;
62790;SDS011;48830;53.426;10.300;2023-04-08T03:26:07;15.87;;;8.83;;
62790;SDS011;48830;53.426;10.300;2023-04-08T03:28:32;15.87;;;8.23;;
62790;SDS011;48830;53.426;10.300;2023-04-08T03:30:58;12.73;;;8.18;;
62790;SDS011;48830;53.426;10.300;2023-04-08T03:33:25;14.43;;;8.30;;
62790;SDS011;48830;53.426;10.300;2023-04-08T03:35:50;14.32;;;8.52;;
62790;SDS011;48830;53.426;10.300;2023-04-08T03:38:17;15.55;;;8.30;;
62790;SDS011;48830;53.426;10.300;2023-04-08T03:40:43;13.70;;;8.05;;
62790;SDS011;48830;53.426;10.300;2023-04-08T03:43:08;18.88;;;10.68;;
62790;SDS011;48830;53.426;10.300;2023-04-08T03:45:36;16.77;;;10.00;;
62790;SDS011;48830;53.426;10.300;2023-04-08T03:48:01;19.58;;;9.93;;
62790;SDS011;48830;53.426;10.300;2023-04-08T03:50:27;18.48;;;10.05;;
62790;SDS011;48830;53.426;10.300;2023-04-08T03:52:52;19.08;;;10.75;;
62790;SDS011;48830;53.426;10.300;2023-04-08T03:55:18;18.75;;;10.18;;
62790;SDS011;48830;53.426;10.300;2023-04-08T03:57:43;19.97;;;11.37;;
62790;SDS011;48830;53.426;10.300;2023-04-08T04:00:09;24.27;;;11.45;;
62790;SDS011;48830;53.426;10.300;2023-04-08T04:02:38;21.37;;;11.63;;
62790;SDS011;48830;53.426;10.300;2023-04-08T04:05:04;22.93;;;12.07;;
62790;SDS011;48830;53.426;10.300;2023-04-08T04:07:30;23.93;;;12.60;;
62790;SDS011;48830;53.426;10.300;2023-04-08T04:09:55;21.55;;;11.95;;
62790;SDS011;48830;53.426;10.300;2023-04-08T04:12:21;21.65;;;11.57;;
62790;SDS011;48830;53.426;10.300;2023-04-08T04:14:49;19.20;;;11.57;;
62790;SDS011;48830;53.426;10.300;2023-04-08T04:17:15;21.97;;;12.53;;
62790;SDS011;48830;53.426;10.300;2023-04-08T04:19:40;19.67;;;12.30;;
62790;SDS011;48830;53.426;10.300;2023-04-08T04:22:06;22.80;;;12.23;;
62790;SDS011;48830;53.426;10.300;2023-04-08T04:24:31;21.77;;;12.55;;
62790;SDS011;48830;53.426;10.300;2023-04-08T04:26:57;21.15;;;12.07;;
62790;SDS011;48830;53.426;10.300;2023-04-08T04:29:22;21.77;;;11.93;;
62790;SDS011;48830;53.426;10.300;2023-04-08T04:31:47;25.08;;;12.85;;
62790;SDS011;48830;53.426;10.300;2023-04-08T04:34:13;26.75;;;13.32;;
62790;SDS011;48830;53.426;10.300;2023-04-08T04:36:38;21.58;;;12.50;;
62790;SDS011;48830;53.426;10.300;2023-04-08T04:39:04;25.08;;;12.77;;
62790;SDS011;48830;53.426;10.300;2023-04-08T04:41:29;20.88;;;12.77;;
62790;SDS011;48830;53.426;10.300;2023-04-08T04:43:55;22.52;;;12.85;;
62790;SDS011;48830;53.426;10.300;2023-04-08T04:46:20;22.33;;;12.73;;
62790;SDS011;48830;53.426;10.300;2023-04-08T04:48:46;25.63;;;12.55;;
62790;SDS011;48830;53.426;10.300;2023-04-08T04:51:11;21.88;;;11.93;;
62790;SDS011;48830;53.426;10.300;2023-04-08T04:53:37;25.50;;;12.90;;
62790;SDS011;48830;53.426;10.300;2023-04-08T04:56:02;24.58;;;13.00;;
62790;SDS011;48830;53.426;10.300;2023-04-08T04:58:28;25.07;;;13.07;;
62790;SDS011;48830;53.426;10.300;2023-04-08T05:00:54;25.97;;;13.80;;
62790;SDS011;48830;53.426;10.300;2023-04-08T05:03:20;23.37;;;12.37;;
62790;SDS011;48830;53.426;10.300;2023-04-08T05:05:49;22.87;;;12.77;;
62790;SDS011;48830;53.426;10.300;2023-04-08T05:08:16;23.23;;;12.90;;
62790;SDS011;48830;53.426;10.300;2023-04-08T05:10:41;24.27;;;13.37;;
62790;SDS011;48830;53.426;10.300;2023-04-08T05:13:07;23.73;;;12.33;;
62790;SDS011;48830;53.426;10.300;2023-04-08T05:15:32;23.83;;;13.35;;
62790;SDS011;48830;53.426;10.300;2023-04-08T05:17:58;20.57;;;12.47;;
62790;SDS011;48830;53.426;10.300;2023-04-08T05:20:23;23.40;;;12.55;;
62790;SDS011;48830;53.426;10.300;2023-04-08T05:22:49;21.87;;;13.70;;
62790;SDS011;48830;53.426;10.300;2023-04-08T05:25:14;20.77;;;11.80;;
62790;SDS011;48830;53.426;10.300;2023-04-08T05:27:40;19.70;;;12.53;;
62790;SDS011;48830;53.426;10.300;2023-04-08T05:30:06;21.97;;;12.30;;
62790;SDS011;48830;53.426;10.300;2023-04-08T05:32:32;21.73;;;12.53;;
62790;SDS011;48830;53.426;10.300;2023-04-08T05:35:00;23.80;;;12.80;;
62790;SDS011;48830;53.426;10.300;2023-04-08T05:37:26;20.47;;;13.13;;
62790;SDS011;48830;53.426;10.300;2023-04-08T05:39:52;24.13;;;13.83;;
62790;SDS011;48830;53.426;10.300;2023-04-08T05:42:17;21.00;;;12.50;;
62790;SDS011;48830;53.426;10.300;2023-04-08T05:44:42;22.13;;;14.07;;
62790;SDS011;48830;53.426;10.300;2023-04-08T05:47:08;19.30;;;12.10;;
62790;SDS011;48830;53.426;10.300;2023-04-08T05:49:34;19.17;;;12.27;;
62790;SDS011;48830;53.426;10.300;2023-04-08T05:51:59;21.43;;;12.53;;
62790;SDS011;48830;53.426;10.300;2023-04-08T05:54:25;18.27;;;12.40;;
62790;SDS011;48830;53.426;10.300;2023-04-08T05:56:50;18.20;;;12.13;;
62790;SDS011;48830;53.426;10.300;2023-04-08T05:59:16;21.00;;;12.90;;
62790;SDS011;48830;53.426;10.300;2023-04-08T06:01:41;20.83;;;12.73;;
62790;SDS011;48830;53.426;10.300;2023-04-08T06:04:07;22.90;;;12.77;;
62790;SDS011;48830;53.426;10.300;2023-04-08T06:06:32;21.07;;;11.63;;
62790;SDS011;48830;53.426;10.300;2023-04-08T06:08:57;20.17;;;12.70;;
62790;SDS011;48830;53.426;10.300;2023-04-08T06:11:23;20.50;;;11.90;;
62790;SDS011;48830;53.426;10.300;2023-04-08T06:13:48;22.57;;;12.40;;
62790;SDS011;48830;53.426;10.300;2023-04-08T06:16:14;21.93;;;12.30;;
62790;SDS011;48830;53.426;10.300;2023-04-08T06:18:43;19.77;;;11.60;;
62790;SDS011;48830;53.426;10.300;2023-04-08T06:21:09;17.87;;;11.43;;
62790;SDS011;48830;53.426;10.300;2023-04-08T06:23:35;19.93;;;12.50;;
62790;SDS011;48830;53.426;10.300;2023-04-08T06:26:01;19.43;;;12.90;;
62790;SDS011;48830;53.426;10.300;2023-04-08T06:28:28;19.83;;;12.23;;
62790;SDS011;48830;53.426;10.300;2023-04-08T06:30:54;20.92;;;11.88;;
62790;SDS011;48830;53.426;10.300;2023-04-08T06:33:19;17.10;;;11.57;;
62790;SDS011;48830;53.426;10.300;2023-04-08T06:35:45;23.70;;;12.97;;
62790;SDS011;48830;53.426;10.300;2023-04-08T06:38:10;19.03;;;12.13;;
62790;SDS011;48830;53.426;10.300;2023-04-08T06:40:37;19.20;;;12.20;;
62790;SDS011;48830;53.426;10.300;2023-04-08T06:43:03;20.37;;;12.67;;
62790;SDS011;48830;53.426;10.300;2023-04-08T06:45:34;17.20;;;11.50;;
62790;SDS011;48830;53.426;10.300;2023-04-08T06:48:00;21.27;;;12.68;;
62790;SDS011;48830;53.426;10.300;2023-04-08T06:50:26;21.90;;;12.02;;
62790;SDS011;48830;53.426;10.300;2023-04-08T06:52:51;19.85;;;12.07;;
62790;SDS011;48830;53.426;10.300;2023-04-08T06:55:17;20.80;;;12.27;;
62790;SDS011;48830;53.426;10.300;2023-04-08T06:57:42;20.25;;;11.50;;
62790;SDS011;48830;53.426;10.300;2023-04-08T07:00:07;19.63;;;12.10;;
62790;SDS011;48830;53.426;10.300;2023-04-08T07:02:33;21.43;;;12.13;;
62790;SDS011;48830;53.426;10.300;2023-04-08T07:04:59;21.17;;;12.47;;
62790;SDS011;48830;53.426;10.300;2023-04-08T07:07:25;20.27;;;13.02;;
62790;SDS011;48830;53.426;10.300;2023-04-08T07:09:50;25.60;;;13.32;;
62790;SDS011;48830;53.426;10.300;2023-04-08T07:12:16;22.95;;;12.27;;
62790;SDS011;48830;53.426;10.300;2023-04-08T07:14:41;24.45;;;12.65;;
62790;SDS011;48830;53.426;10.300;2023-04-08T07:17:07;20.23;;;11.50;;
62790;SDS011;48830;53.426;10.300;2023-04-08T07:19:32;20.67;;;11.70;;
62790;SDS011;48830;53.426;10.300;2023-04-08T07:21:57;21.30;;;11.47;;
62790;SDS011;48830;53.426;10.300;2023-04-08T07:24:26;16.30;;;9.80;;
62790;SDS011;48830;53.426;10.300;2023-04-08T07:26:51;18.87;;;11.60;;
62790;SDS011;48830;53.426;10.300;2023-04-08T07:29:17;16.75;;;10.50;;
62790;SDS011;48830;53.426;10.300;2023-04-08T07:31:42;16.20;;;9.93;;
62790;SDS011;48830;53.426;10.300;2023-04-08T07:34:09;17.77;;;10.88;;
62790;SDS011;48830;53.426;10.300;2023-04-08T07:36:34;15.63;;;9.82;;
62790;SDS011;48830;53.426;10.300;2023-04-08T07:39:00;18.53;;;9.77;;
62790;SDS011;48830;53.426;10.300;2023-04-08T07:41:25;14.83;;;9.73;;
62790;SDS011;48830;53.426;10.300;2023-04-08T07:43:51;15.83;;;10.10;;
62790;SDS011;48830;53.426;10.300;2023-04-08T07:46:16;20.23;;;10.50;;
62790;SDS011;48830;53.426;10.300;2023-04-08T07:48:42;22.37;;;12.20;;
62790;SDS011;48830;53.426;10.300;2023-04-08T07:51:08;20.93;;;11.80;;
62790;SDS011;48830;53.426;10.300;2023-04-08T07:53:34;22.15;;;11.40;;
62790;SDS011;48830;53.426;10.300;2023-04-08T07:56:00;20.27;;;11.57;;
62790;SDS011;48830;53.426;10.300;2023-04-08T07:58:28;21.40;;;10.53;;
62790;SDS011;48830;53.426;10.300;2023-04-08T08:00:53;20.25;;;11.07;;
62790;SDS011;48830;53.426;10.300;2023-04-08T08:03:19;20.97;;;10.50;;
62790;SDS011;48830;53.426;10.300;2023-04-08T08:05:44;18.77;;;10.30;;
62790;SDS011;48830;53.426;10.300;2023-04-08T08:08:09;17.87;;;10.23;;
62790;SDS011;48830;53.426;10.300;2023-04-08T08:10:39;18.63;;;10.65;;
62790;SDS011;48830;53.426;10.300;2023-04-08T08:13:05;18.03;;;10.27;;
62790;SDS011;48830;53.426;10.300;2023-04-08T08:15:32;18.52;;;10.68;;
62790;SDS011;48830;53.426;10.300;2023-04-08T08:17:57;16.92;;;10.15;;
62790;SDS011;48830;53.426;10.300;2023-04-08T08:20:23;19.52;;;10.77;;
62790;SDS011;48830;53.426;10.300;2023-04-08T08:22:48;21.08;;;10.60;;
62790;SDS011;48830;53.426;10.300;2023-04-08T08:25:14;20.95;;;10.68;;
62790;SDS011;48830;53.426;10.300;2023-04-08T08:27:40;17.80;;;10.80;;
62790;SDS011;48830;53.426;10.300;2023-04-08T08:30:06;20.83;;;10.98;;
62790;SDS011;48830;53.426;10.300;2023-04-08T08:32:33;20.27;;;10.93;;
62790;SDS011;48830;53.426;10.300;2023-04-08T08:34:59;20.80;;;11.10;;
62790;SDS011;48830;53.426;10.300;2023-04-08T08:37:24;20.02;;;10.45;;
62790;SDS011;48830;53.426;10.300;2023-04-08T08:39:51;20.77;;;11.33;;
62790;SDS011;48830;53.426;10.300;2023-04-08T08:42:20;17.75;;;10.50;;
62790;SDS011;48830;53.426;10.300;2023-04-08T08:44:47;17.92;;;11.00;;
62790;SDS011;48830;53.426;10.300;2023-04-08T08:47:13;20.00;;;12.10;;
62790;SDS011;48830;53.426;10.300;2023-04-08T08:49:39;22.90;;;11.65;;
62790;SDS011;48830;53.426;10.300;2023-04-08T08:52:05;18.40;;;10.80;;
62790;SDS011;48830;53.426;10.300;2023-04-08T08:54:31;19.98;;;10.68;;
62790;SDS011;48830;53.426;10.300;2023-04-08T08:56:56;21.02;;;11.70;;
62790;SDS011;48830;53.426;10.300;2023-04-08T08:59:22;19.75;;;11.25;;
62790;SDS011;48830;53.426;10.300;2023-04-08T09:01:48;20.13;;;10.68;;
62790;SDS011;48830;53.426;10.300;2023-04-08T09:04:17;19.95;;;10.82;;
62790;SDS011;48830;53.426;10.300;2023-04-08T09:06:49;14.32;;;9.23;;
62790;SDS011;48830;53.426;10.300;2023-04-08T09:09:51;17.38;;;9.90;;
62790;SDS011;48830;53.426;10.300;2023-04-08T09:12:18;16.77;;;9.35;;
62790;SDS011;48830;53.426;10.300;2023-04-08T09:14:43;17.43;;;10.47;;
62790;SDS011;48830;53.426;10.300;2023-04-08T09:17:09;17.25;;;10.25;;
62790;SDS011;48830;53.426;10.300;2023-04-08T09:19:34;16.42;;;9.98;;
62790;SDS011;48830;53.426;10.300;2023-04-08T09:22:06;17.25;;;10.20;;
62790;SDS011;48830;53.426;10.300;2023-04-08T09:24:36;16.90;;;9.73;;
62790;SDS011;48830;53.426;10.300;2023-04-08T09:27:05;18.15;;;9.68;;
62790;SDS011;48830;53.426;10.300;2023-04-08T09:29:30;18.17;;;10.05;;
62790;SDS011;48830;53.426;10.300;2023-04-08T09:31:56;16.85;;;10.27;;
62790;SDS011;48830;53.426;10.300;2023-04-08T09:34:23;19.27;;;9.63;;
62790;SDS011;48830;53.426;10.300;2023-04-08T09:36:49;14.57;;;9.05;;
62790;SDS011;48830;53.426;10.300;2023-04-08T09:39:15;14.45;;;8.55;;
62790;SDS011;48830;53.426;10.300;2023-04-08T09:41:41;17.20;;;9.25;;
62790;SDS011;48830;53.426;10.300;2023-04-08T09:44:08;17.02;;;9.50;;
62790;SDS011;48830;53.426;10.300;2023-04-08T09:46:46;15.23;;;8.88;;
62790;SDS011;48830;53.426;10.300;2023-04-08T09:51:58;16.65;;;9.95;;
62790;SDS011;48830;53.426;10.300;2023-04-08T09:54:31;15.60;;;8.60;;
62790;SDS011;48830;53.426;10.300;2023-04-08T10:00:04;16.73;;;9.85;;
62790;SDS011;48830;53.426;10.300;2023-04-08T10:03:04;15.50;;;9.48;;
62790;SDS011;48830;53.426;10.300;2023-04-08T10:05:32;17.65;;;9.85;;
62790;SDS011;48830;53.426;10.300;2023-04-08T10:08:02;16.23;;;9.23;;
62790;SDS011;48830;53.426;10.300;2023-04-08T10:10:27;19.45;;;10.55;;
62790;SDS011;48830;53.426;10.300;2023-04-08T10:12:53;19.67;;;10.52;;
62790;SDS011;48830;53.426;10.300;2023-04-08T10:17:55;15.43;;;9.77;;
62790;SDS011;48830;53.426;10.300;2023-04-08T10:20:45;19.02;;;10.70;;
62790;SDS011;48830;53.426;10.300;2023-04-08T10:25:44;19.70;;;10.55;;
62790;SDS011;48830;53.426;10.300;2023-04-08T10:33:03;19.15;;;10.60;;
62790;SDS011;48830;53.426;10.300;2023-04-08T10:38:14;19.45;;;11.15;;
62790;SDS011;48830;53.426;10.300;2023-04-08T10:40:40;18.83;;;11.25;;
62790;SDS011;48830;53.426;10.300;2023-04-08T10:43:10;21.20;;;11.55;;
62790;SDS011;48830;53.426;10.300;2023-04-08T10:45:37;19.42;;;11.68;;
62790;SDS011;48830;53.426;10.300;2023-04-08T10:50:39;21.38;;;12.68;;
62790;SDS011;48830;53.426;10.300;2023-04-08T10:53:06;24.05;;;13.13;;
62790;SDS011;48830;53.426;10.300;2023-04-08T10:55:32;20.13;;;12.32;;
62790;SDS011;48830;53.426;10.300;2023-04-08T10:58:05;20.58;;;11.98;;
62790;SDS011;48830;53.426;10.300;2023-04-08T11:00:35;20.92;;;11.75;;
62790;SDS011;48830;53.426;10.300;2023-04-08T11:03:02;20.20;;;11.70;;
62790;SDS011;48830;53.426;10.300;2023-04-08T11:05:30;19.45;;;10.75;;
62790;SDS011;48830;53.426;10.300;2023-04-08T11:08:00;21.00;;;11.90;;
62790;SDS011;48830;53.426;10.300;2023-04-08T11:10:25;20.77;;;11.07;;
62790;SDS011;48830;53.426;10.300;2023-04-08T11:12:55;25.77;;;11.38;;
62790;SDS011;48830;53.426;10.300;2023-04-08T11:15:25;19.63;;;11.77;;
62790;SDS011;48830;53.426;10.300;2023-04-08T11:17:52;19.05;;;11.98;;
62790;SDS011;48830;53.426;10.300;2023-04-08T11:20:19;20.00;;;12.02;;
62790;SDS011;48830;53.426;10.300;2023-04-08T11:22:44;20.42;;;11.65;;
62790;SDS011;48830;53.426;10.300;2023-04-08T11:25:11;22.92;;;12.15;;
62790;SDS011;48830;53.426;10.300;2023-04-08T11:27:37;19.05;;;11.02;;
62790;SDS011;48830;53.426;10.300;2023-04-08T11:30:03;22.83;;;11.90;;
62790;SDS011;48830;53.426;10.300;2023-04-08T11:32:30;22.13;;;12.30;;
62790;SDS011;48830;53.426;10.300;2023-04-08T11:35:00;19.88;;;11.55;;
62790;SDS011;48830;53.426;10.300;2023-04-08T11:37:38;21.92;;;12.90;;
62790;SDS011;48830;53.426;10.300;2023-04-08T11:40:06;23.13;;;12.88;;
62790;SDS011;48830;53.426;10.300;2023-04-08T11:42:35;24.63;;;13.57;;
62790;SDS011;48830;53.426;10.300;2023-04-08T11:45:01;22.35;;;12.88;;
62790;SDS011;48830;53.426;10.300;2023-04-08T11:47:35;24.88;;;14.02;;
62790;SDS011;48830;53.426;10.300;2023-04-08T11:50:01;22.23;;;12.70;;
62790;SDS011;48830;53.426;10.300;2023-04-08T11:52:43;22.60;;;13.02;;
62790;SDS011;48830;53.426;10.300;2023-04-08T11:55:32;24.10;;;13.70;;
62790;SDS011;48830;53.426;10.300;2023-04-08T11:58:01;26.65;;;15.75;;
62790;SDS011;48830;53.426;10.300;2023-04-08T12:00:28;25.25;;;14.77;;
62790;SDS011;48830;53.426;10.300;2023-04-08T12:02:53;24.60;;;14.57;;
62790;SDS011;48830;53.426;10.300;2023-04-08T12:05:19;26.92;;;14.80;;
62790;SDS011;48830;53.426;10.300;2023-04-08T12:07:45;27.00;;;14.13;;
62790;SDS011;48830;53.426;10.300;2023-04-08T12:10:11;26.70;;;14.98;;
62790;SDS011;48830;53.426;10.300;2023-04-08T12:12:37;22.23;;;13.57;;
62790;SDS011;48830;53.426;10.300;2023-04-08T12:15:03;25.50;;;15.00;;
62790;SDS011;48830;53.426;10.300;2023-04-08T12:17:29;25.20;;;14.60;;
62790;SDS011;48830;53.426;10.300;2023-04-08T12:19:54;24.02;;;14.60;;
62790;SDS011;48830;53.426;10.300;2023-04-08T12:22:21;24.40;;;13.98;;
62790;SDS011;48830;53.426;10.300;2023-04-08T12:24:46;23.80;;;14.40;;
62790;SDS011;48830;53.426;10.300;2023-04-08T12:27:12;28.77;;;16.17;;
62790;SDS011;48830;53.426;10.300;2023-04-08T12:29:37;24.75;;;14.90;;
62790;SDS011;48830;53.426;10.300;2023-04-08T12:32:04;24.20;;;14.75;;
62790;SDS011;48830;53.426;10.300;2023-04-08T12:34:30;25.50;;;14.95;;
62790;SDS011;48830;53.426;10.300;2023-04-08T12:36:57;23.65;;;14.00;;
62790;SDS011;48830;53.426;10.300;2023-04-08T12:39:22;22.10;;;13.20;;
62790;SDS011;48830;53.426;10.300;2023-04-08T12:41:48;21.42;;;13.77;;
62790;SDS011;48830;53.426;10.300;2023-04-08T12:44:13;25.83;;;14.88;;
62790;SDS011;48830;53.426;10.300;2023-04-08T12:46:39;25.50;;;13.50;;
62790;SDS011;48830;53.426;10.300;2023-04-08T12:49:04;25.88;;;15.05;;
62790;SDS011;48830;53.426;10.300;2023-04-08T12:51:30;24.65;;;14.05;;
62790;SDS011;48830;53.426;10.300;2023-04-08T12:53:56;22.75;;;14.55;;
62790;SDS011;48830;53.426;10.300;2023-04-08T12:56:21;26.02;;;15.18;;
62790;SDS011;48830;53.426;10.300;2023-04-08T12:58:47;20.95;;;14.55;;
62790;SDS011;48830;53.426;10.300;2023-04-08T13:01:12;23.10;;;14.68;;
62790;SDS011;48830;53.426;10.300;2023-04-08T13:03:38;24.02;;;14.70;;
62790;SDS011;48830;53.426;10.300;2023-04-08T13:06:03;23.25;;;13.88;;
62790;SDS011;48830;53.426;10.300;2023-04-08T13:08:29;21.40;;;12.95;;
62790;SDS011;48830;53.426;10.300;2023-04-08T13:10:55;24.15;;;13.45;;
62790;SDS011;48830;53.426;10.300;2023-04-08T13:13:20;24.85;;;13.95;;
62790;SDS011;48830;53.426;10.300;2023-04-08T13:15:46;25.67;;;14.32;;
62790;SDS011;48830;53.426;10.300;2023-04-08T13:18:12;25.20;;;14.82;;
62790;SDS011;48830;53.426;10.300;2023-04-08T13:20:37;24.52;;;14.38;;
62790;SDS011;48830;53.426;10.300;2023-04-08T13:23:03;24.67;;;14.02;;
62790;SDS011;48830;53.426;10.300;2023-04-08T13:25:28;24.20;;;14.13;;
62790;SDS011;48830;53.426;10.300;2023-04-08T13:27:54;23.58;;;14.23;;
62790;SDS011;48830;53.426;10.300;2023-04-08T13:30:20;27.52;;;14.10;;
62790;SDS011;48830;53.426;10.300;2023-04-08T13:32:45;26.77;;;14.48;;
62790;SDS011;48830;53.426;10.300;2023-04-08T13:35:11;21.83;;;13.07;;
62790;SDS011;48830;53.426;10.300;2023-04-08T13:37:36;23.45;;;14.43;;
62790;SDS011;48830;53.426;10.300;2023-04-08T13:40:02;21.88;;;13.00;;
62790;SDS011;48830;53.426;10.300;2023-04-08T13:42:28;23.77;;;14.00;;
62790;SDS011;48830;53.426;10.300;2023-04-08T13:44:56;23.05;;;13.52;;
62790;SDS011;48830;53.426;10.300;2023-04-08T13:47:21;25.00;;;14.10;;
62790;SDS011;48830;53.426;10.300;2023-04-08T13:49:47;23.67;;;14.95;;
62790;SDS011;48830;53.426;10.300;2023-04-08T13:52:12;25.80;;;15.23;;
62790;SDS011;48830;53.426;10.300;2023-04-08T13:54:38;25.27;;;15.27;;
62790;SDS011;48830;53.426;10.300;2023-04-08T13:57:03;25.60;;;13.98;;
62790;SDS011;48830;53.426;10.300;2023-04-08T13:59:29;23.15;;;14.80;;
62790;SDS011;48830;53.426;10.300;2023-04-08T14:01:54;24.27;;;14.27;;
62790;SDS011;48830;53.426;10.300;2023-04-08T14:04:20;23.38;;;13.32;;
62790;SDS011;48830;53.426;10.300;2023-04-08T14:06:46;21.20;;;13.35;;
62790;SDS011;48830;53.426;10.300;2023-04-08T14:09:12;22.50;;;14.48;;
62790;SDS011;48830;53.426;10.300;2023-04-08T14:11:37;20.80;;;12.63;;
62790;SDS011;48830;53.426;10.300;2023-04-08T14:14:03;21.67;;;14.07;;
62790;SDS011;48830;53.426;10.300;2023-04-08T14:16:28;22.52;;;13.93;;
62790;SDS011;48830;53.426;10.300;2023-04-08T14:18:55;22.67;;;14.50;;
62790;SDS011;48830;53.426;10.300;2023-04-08T14:21:21;23.95;;;13.45;;
62790;SDS011;48830;53.426;10.300;2023-04-08T14:23:47;24.15;;;14.27;;
62790;SDS011;48830;53.426;10.300;2023-04-08T14:26:13;25.08;;;13.98;;
62790;SDS011;48830;53.426;10.300;2023-04-08T14:28:38;27.40;;;16.13;;
62790;SDS011;48830;53.426;10.300;2023-04-08T14:31:04;24.65;;;13.88;;
62790;SDS011;48830;53.426;10.300;2023-04-08T14:33:30;23.08;;;13.73;;
62790;SDS011;48830;53.426;10.300;2023-04-08T14:35:55;22.60;;;13.30;;
62790;SDS011;48830;53.426;10.300;2023-04-08T14:38:23;20.92;;;13.50;;
62790;SDS011;48830;53.426;10.300;2023-04-08T14:40:48;22.17;;;13.80;;
62790;SDS011;48830;53.426;10.300;2023-04-08T14:43:14;22.88;;;13.23;;